createdAt,value
2019-02-10T00:00:58.042Z,3.20
2019-02-10T00:04:17.892Z,3.03
2019-02-10T00:07:35.932Z,2.97
2019-02-10T00:11:01.040Z,2.73
2019-02-10T00:14:39.729Z,2.75
2019-02-10T00:18:00.726Z,2.79
2019-02-10T00:21:22.320Z,2.87
2019-02-10T00:24:54.884Z,2.97
2019-02-10T00:28:32.387Z,2.76
2019-02-10T00:31:52.926Z,2.71
2019-02-10T00:35:12.432Z,2.72
2019-02-10T00:38:40.234Z,2.58
2019-02-10T00:42:10.071Z,2.56
2019-02-10T00:45:30.094Z,2.79
2019-02-10T00:48:59.774Z,2.81
2019-02-10T00:52:38.896Z,2.77
2019-02-10T00:56:12.505Z,2.58
2019-02-10T00:59:38.282Z,2.42
2019-02-10T01:02:49.944Z,2.56
2019-02-10T01:06:17.133Z,2.47
2019-02-10T01:09:50.347Z,2.51
2019-02-10T01:13:14.641Z,2.19
2019-02-10T01:16:47.730Z,2.02
2019-02-10T01:23:58.206Z,1.76
2019-02-10T01:27:18.375Z,1.89
2019-02-10T01:30:44.336Z,1.74
2019-02-10T01:33:56.309Z,1.82
2019-02-10T01:37:25.202Z,1.72
2019-02-10T01:40:53.978Z,1.72
2019-02-10T01:44:27.301Z,1.78
2019-02-10T01:47:49.944Z,1.84
2019-02-10T01:51:05.772Z,1.74
2019-02-10T01:54:23.470Z,1.66
2019-02-10T01:57:54.633Z,1.68
2019-02-10T02:01:24.848Z,1.76
2019-02-10T02:05:02.856Z,1.77
2019-02-10T02:08:31.251Z,1.85
2019-02-10T02:11:50.531Z,1.88
2019-02-10T02:15:09.430Z,1.98
2019-02-10T02:18:33.237Z,1.94
2019-02-10T02:21:58.684Z,2.03
2019-02-10T02:25:20.246Z,2.03
2019-02-10T02:28:38.696Z,1.96
2019-02-10T02:32:19.469Z,1.96
2019-02-10T02:35:35.076Z,2.03
2019-02-10T02:39:09.237Z,2.05
2019-02-10T02:42:36.279Z,2.02
2019-02-10T02:46:01.253Z,2.12
2019-02-10T02:49:32.922Z,2.16
2019-02-10T02:52:46.254Z,2.33
2019-02-10T02:56:03.720Z,2.37
2019-02-10T02:59:35.314Z,2.47
2019-02-10T03:02:55.924Z,2.47
2019-02-10T03:06:14.945Z,2.44
2019-02-10T03:09:52.304Z,2.45
2019-02-10T03:13:07.969Z,2.49
2019-02-10T03:16:32.133Z,2.43
2019-02-10T03:19:44.891Z,2.51
2019-02-10T03:23:03.221Z,2.65
2019-02-10T03:26:17.409Z,2.72
2019-02-10T03:29:35.643Z,2.66
2019-02-10T03:33:14.525Z,2.57
2019-02-10T03:36:51.574Z,2.51
2019-02-10T03:40:19.173Z,2.54
2019-02-10T03:43:24.309Z,2.58
2019-02-10T03:46:29.498Z,2.55
2019-02-10T03:49:34.634Z,2.59
2019-02-10T03:52:39.758Z,2.55
2019-02-10T03:55:44.848Z,2.51
2019-02-10T03:58:50.143Z,2.48
2019-02-10T04:01:55.333Z,2.51
2019-02-10T04:05:00.460Z,2.41
2019-02-10T04:08:05.761Z,2.51
2019-02-10T04:11:10.908Z,2.58
2019-02-10T04:14:16.081Z,2.57
2019-02-10T04:17:21.164Z,2.51
2019-02-10T04:20:26.311Z,2.44
2019-02-10T04:23:31.421Z,2.54
2019-02-10T04:26:37.672Z,2.49
2019-02-10T04:29:42.918Z,2.59
2019-02-10T04:32:47.992Z,2.60
2019-02-10T04:35:54.209Z,2.65
2019-02-10T04:38:59.537Z,2.81
2019-02-10T04:42:04.677Z,2.95
2019-02-10T04:45:09.754Z,3.01
2019-02-10T04:48:14.906Z,3.11
2019-02-10T04:51:20.083Z,3.14
2019-02-10T04:54:25.240Z,2.93
2019-02-10T04:57:30.386Z,3.06
2019-02-10T05:00:35.629Z,3.30
2019-02-10T05:03:40.757Z,3.21
2019-02-10T05:06:45.858Z,3.06
2019-02-10T05:09:50.988Z,3.10
2019-02-10T05:12:56.072Z,3.08
2019-02-10T05:16:01.207Z,3.03
2019-02-10T05:19:06.401Z,3.04
2019-02-10T05:22:11.519Z,3.03
2019-02-10T05:25:16.645Z,3.00
2019-02-10T05:28:21.770Z,2.99
2019-02-10T05:31:26.904Z,3.03
2019-02-10T05:34:32.082Z,3.03
2019-02-10T05:37:37.222Z,3.10
2019-02-10T05:40:43.313Z,2.99
2019-02-10T05:43:48.478Z,3.03
2019-02-10T05:46:53.595Z,2.99
2019-02-10T05:49:58.754Z,3.09
2019-02-10T05:53:03.872Z,3.02
2019-02-10T05:56:09.104Z,2.98
2019-02-10T05:59:14.247Z,3.21
2019-02-10T06:02:26.905Z,3.17
2019-02-10T06:05:32.597Z,3.12
2019-02-10T06:08:37.689Z,3.07
2019-02-10T06:11:42.909Z,3.26
2019-02-10T06:14:48.113Z,3.52
2019-02-10T06:17:53.270Z,3.55
2019-02-10T06:20:58.455Z,3.45
2019-02-10T06:24:03.707Z,3.30
2019-02-10T06:27:08.873Z,3.24
2019-02-10T06:30:14.028Z,3.32
2019-02-10T06:33:19.159Z,3.31
2019-02-10T06:36:24.230Z,3.38
2019-02-10T06:39:29.436Z,3.41
2019-02-10T06:42:34.589Z,3.38
2019-02-10T06:45:39.723Z,3.39
2019-02-10T06:48:45.979Z,3.51
2019-02-10T06:51:51.113Z,3.55
2019-02-10T06:54:56.375Z,3.53
2019-02-10T06:58:01.461Z,3.43
2019-02-10T07:01:24.267Z,3.42
2019-02-10T07:04:31.164Z,3.39
2019-02-10T07:07:36.293Z,3.53
2019-02-10T07:10:41.432Z,3.50
2019-02-10T07:13:50.415Z,3.53
2019-02-10T07:17:47.516Z,3.46
2019-02-10T07:20:52.725Z,3.45
2019-02-10T07:24:17.289Z,3.47
2019-02-10T07:27:28.630Z,3.59
2019-02-10T07:30:41.200Z,3.59
2019-02-10T07:34:29.550Z,3.56
2019-02-10T07:37:59.095Z,3.77
2019-02-10T07:42:00.690Z,3.81
2019-02-10T07:45:29.205Z,3.70
2019-02-10T07:49:15.558Z,3.75
2019-02-10T07:52:58.526Z,3.85
2019-02-10T07:56:55.954Z,3.83
2019-02-10T08:00:45.162Z,3.83
2019-02-10T08:04:05.245Z,3.96
2019-02-10T08:07:45.525Z,4.00
2019-02-10T08:11:31.309Z,3.95
2019-02-10T08:15:07.366Z,4.03
2019-02-10T08:18:29.572Z,4.09
2019-02-10T08:22:05.910Z,4.08
2019-02-10T08:25:51.933Z,4.32
2019-02-10T08:29:38.129Z,4.52
2019-02-10T08:33:09.386Z,4.57
2019-02-10T08:36:25.505Z,4.69
2019-02-10T08:40:12.909Z,4.77
2019-02-10T08:43:41.580Z,4.75
2019-02-10T08:47:12.198Z,4.70
2019-02-10T08:50:43.208Z,4.70
2019-02-10T08:53:48.513Z,4.83
2019-02-10T08:56:53.702Z,4.92
2019-02-10T08:59:58.823Z,4.77
2019-02-10T09:03:03.980Z,4.80
2019-02-10T09:06:09.169Z,4.88
2019-02-10T09:09:14.335Z,5.16
2019-02-10T09:12:19.460Z,5.23
2019-02-10T09:15:24.627Z,5.37
2019-02-10T09:18:29.794Z,5.29
2019-02-10T09:21:35.072Z,5.29
2019-02-10T09:24:40.263Z,5.36
2019-02-10T09:27:45.394Z,5.50
2019-02-10T09:30:50.514Z,5.77
2019-02-10T09:33:55.674Z,5.86
2019-02-10T09:37:00.797Z,6.12
2019-02-10T09:40:06.271Z,6.33
2019-02-10T09:43:11.385Z,6.35
2019-02-10T09:46:16.448Z,6.44
2019-02-10T09:49:21.591Z,6.73
2019-02-10T09:52:26.698Z,6.51
2019-02-10T09:55:31.848Z,6.37
2019-02-10T09:58:37.040Z,6.47
2019-02-10T10:01:42.146Z,6.95
2019-02-10T10:04:47.309Z,6.70
2019-02-10T10:07:52.446Z,6.50
2019-02-10T10:10:57.582Z,6.55
2019-02-10T10:14:02.675Z,6.31
2019-02-10T10:17:07.793Z,6.21
2019-02-10T10:20:14.613Z,6.26
2019-02-10T10:23:19.746Z,6.33
2019-02-10T10:26:24.838Z,6.38
2019-02-10T10:29:30.317Z,6.44
2019-02-10T10:32:35.472Z,6.58
2019-02-10T10:35:40.704Z,6.71
2019-02-10T10:38:45.890Z,6.69
2019-02-10T10:41:51.025Z,6.70
2019-02-10T10:44:57.285Z,6.85
2019-02-10T10:48:02.410Z,6.77
2019-02-10T10:51:07.554Z,6.65
2019-02-10T10:54:12.657Z,6.76
2019-02-10T10:57:17.857Z,6.75
2019-02-10T11:00:22.982Z,7.09
2019-02-10T11:03:28.123Z,7.41
2019-02-10T11:06:34.037Z,7.58
2019-02-10T11:09:39.232Z,7.52
2019-02-10T11:12:44.388Z,7.59
2019-02-10T11:15:49.491Z,7.54
2019-02-10T11:18:54.798Z,7.76
2019-02-10T11:21:59.900Z,7.68
2019-02-10T11:25:06.336Z,7.85
2019-02-10T11:28:11.357Z,7.63
2019-02-10T11:31:17.590Z,7.77
2019-02-10T11:34:22.743Z,7.87
2019-02-10T11:37:27.985Z,7.80
2019-02-10T11:40:33.140Z,7.87
2019-02-10T11:43:38.359Z,8.00
2019-02-10T11:46:45.052Z,8.14
2019-02-10T11:49:50.201Z,8.05
2019-02-10T11:52:55.341Z,8.17
2019-02-10T11:56:00.567Z,7.99
2019-02-10T11:59:05.787Z,8.03
2019-02-10T12:02:10.980Z,7.90
2019-02-10T12:05:16.079Z,8.16
2019-02-10T12:08:21.257Z,7.78
2019-02-10T12:11:26.343Z,7.71
2019-02-10T12:14:31.542Z,7.70
2019-02-10T12:17:36.665Z,7.91
2019-02-10T12:20:42.389Z,7.87
2019-02-10T12:23:48.561Z,8.00
2019-02-10T12:26:53.696Z,8.10
2019-02-10T12:29:58.891Z,8.14
2019-02-10T12:33:04.177Z,8.20
2019-02-10T12:36:09.396Z,8.34
2019-02-10T12:39:14.655Z,8.43
2019-02-10T12:42:19.968Z,8.63
2019-02-10T12:45:25.093Z,8.74
2019-02-10T12:48:30.335Z,9.08
2019-02-10T12:51:35.500Z,9.22
2019-02-10T12:54:40.667Z,9.30
2019-02-10T12:57:45.763Z,9.37
2019-02-10T13:00:51.044Z,9.16
2019-02-10T13:03:57.277Z,9.26
2019-02-10T13:07:02.408Z,9.33
2019-02-10T13:10:09.176Z,9.13
2019-02-10T13:13:19.351Z,9.30
2019-02-10T13:16:21.414Z,9.14
2019-02-10T13:19:26.661Z,9.25
2019-02-10T13:22:31.816Z,9.16
2019-02-10T13:25:37.033Z,9.06
2019-02-10T13:28:49.115Z,9.14
2019-02-10T13:31:54.337Z,9.03
2019-02-10T13:34:59.496Z,9.27
2019-02-10T13:38:04.686Z,9.16
2019-02-10T13:41:09.856Z,9.06
2019-02-10T13:44:15.000Z,9.09
2019-02-10T13:47:21.178Z,9.03
2019-02-10T13:50:26.342Z,8.98
2019-02-10T13:53:31.522Z,9.20
2019-02-10T13:56:36.895Z,9.14
2019-02-10T13:59:42.055Z,9.22
2019-02-10T14:02:47.247Z,9.29
2019-02-10T14:05:52.375Z,9.42
2019-02-10T14:08:57.609Z,9.32
2019-02-10T14:12:02.712Z,9.38
2019-02-10T14:15:09.814Z,9.31
2019-02-10T14:18:14.994Z,9.32
2019-02-10T14:21:20.191Z,9.34
2019-02-10T14:24:25.340Z,9.31
2019-02-10T14:27:30.531Z,9.32
2019-02-10T14:30:35.791Z,9.47
2019-02-10T14:33:40.925Z,9.51
2019-02-10T14:36:46.138Z,9.51
2019-02-10T14:39:51.286Z,9.52
2019-02-10T14:42:56.467Z,9.38
2019-02-10T14:46:01.675Z,9.32
2019-02-10T14:49:06.805Z,9.28
2019-02-10T14:52:12.049Z,9.32
2019-02-10T14:55:17.273Z,9.26
2019-02-10T14:58:22.526Z,9.45
2019-02-10T15:01:27.632Z,9.31
2019-02-10T15:04:32.838Z,9.10
2019-02-10T15:07:39.185Z,8.96
2019-02-10T15:10:44.337Z,8.92
2019-02-10T15:13:49.676Z,9.06
2019-02-10T15:16:54.902Z,9.03
2019-02-10T15:20:00.148Z,9.00
2019-02-10T15:23:05.323Z,8.95
2019-02-10T15:26:10.433Z,8.84
2019-02-10T15:29:15.529Z,8.86
2019-02-10T15:32:20.837Z,8.71
2019-02-10T15:35:26.199Z,8.78
2019-02-10T15:38:31.345Z,8.76
2019-02-10T15:41:36.537Z,8.63
2019-02-10T15:44:41.671Z,8.41
2019-02-10T15:47:46.893Z,8.39
2019-02-10T15:50:52.005Z,8.26
2019-02-10T15:53:57.463Z,8.21
2019-02-10T15:57:02.621Z,8.13
2019-02-10T16:00:10.930Z,8.11
2019-02-10T16:03:16.379Z,7.96
2019-02-10T16:06:21.486Z,8.04
2019-02-10T16:09:26.616Z,7.92
2019-02-10T16:12:31.864Z,7.74
2019-02-10T16:15:37.021Z,7.83
2019-02-10T16:18:42.231Z,7.78
2019-02-10T16:21:47.446Z,7.72
2019-02-10T16:24:52.620Z,7.70
2019-02-10T16:27:57.673Z,7.75
2019-02-10T16:31:02.945Z,7.59
2019-02-10T16:34:08.116Z,7.58
2019-02-10T16:37:13.192Z,7.49
2019-02-10T16:40:18.684Z,7.47
2019-02-10T16:43:24.846Z,7.40
2019-02-10T16:46:29.988Z,7.43
2019-02-10T16:49:35.155Z,7.43
2019-02-10T16:52:41.469Z,7.46
2019-02-10T16:55:46.725Z,7.42
2019-02-10T16:58:51.911Z,7.30
2019-02-10T17:01:57.104Z,7.33
2019-02-10T17:05:02.231Z,7.30
2019-02-10T17:08:07.380Z,7.38
2019-02-10T17:11:14.373Z,7.42
2019-02-10T17:14:19.393Z,7.35
2019-02-10T17:17:24.606Z,7.26
2019-02-10T17:20:29.882Z,7.40
2019-02-10T17:23:35.155Z,7.39
2019-02-10T17:26:40.279Z,7.25
2019-02-10T17:29:45.554Z,7.13
2019-02-10T17:32:50.666Z,7.06
2019-02-10T17:35:55.766Z,7.25
2019-02-10T17:39:00.953Z,7.25
2019-02-10T17:42:07.784Z,7.02
2019-02-10T17:45:12.946Z,6.97
2019-02-10T17:48:18.207Z,6.98
2019-02-10T17:51:23.350Z,6.89
2019-02-10T17:54:28.784Z,6.95
2019-02-10T17:57:33.961Z,6.98
2019-02-10T18:00:43.443Z,6.91
2019-02-10T18:03:48.715Z,6.91
2019-02-10T18:06:53.992Z,6.80
2019-02-10T18:09:59.167Z,6.78
2019-02-10T18:13:04.440Z,6.76
2019-02-10T18:16:34.339Z,6.59
2019-02-10T18:19:52.775Z,6.67
2019-02-10T18:23:07.509Z,6.58
2019-02-10T18:26:47.147Z,6.62
2019-02-10T18:30:09.497Z,6.56
2019-02-10T18:33:36.474Z,6.65
2019-02-10T18:37:03.693Z,6.61
2019-02-10T18:40:20.036Z,6.52
2019-02-10T18:43:37.864Z,6.55
2019-02-10T18:47:06.209Z,6.45
2019-02-10T18:50:19.468Z,6.42
2019-02-10T18:53:42.576Z,6.31
2019-02-10T18:56:59.674Z,6.22
2019-02-10T19:00:23.976Z,6.29
2019-02-10T19:03:34.269Z,6.28
2019-02-10T19:07:10.869Z,6.17
2019-02-10T19:10:53.416Z,6.09
2019-02-10T19:14:11.597Z,6.09
2019-02-10T19:17:41.555Z,6.17
2019-02-10T19:21:04.322Z,6.15
2019-02-10T19:24:28.511Z,6.18
2019-02-10T19:28:07.884Z,6.27
2019-02-10T19:31:27.176Z,6.25
2019-02-10T19:35:00.657Z,6.28
2019-02-10T19:38:26.023Z,6.23
2019-02-10T19:41:38.175Z,6.22
2019-02-10T19:45:01.684Z,6.30
2019-02-10T19:48:28.628Z,6.25
2019-02-10T19:51:43.148Z,6.32
2019-02-10T19:55:13.087Z,6.16
2019-02-10T19:58:36.063Z,6.27
2019-02-10T20:01:58.969Z,6.32
2019-02-10T20:05:23.132Z,6.18
2019-02-10T20:08:47.273Z,6.19
2019-02-10T20:12:04.369Z,6.08
2019-02-10T20:15:16.588Z,6.17
2019-02-10T20:18:37.927Z,6.10
2019-02-10T20:22:11.262Z,6.15
2019-02-10T20:25:35.835Z,6.17
2019-02-10T20:29:13.415Z,6.10
2019-02-10T20:32:36.470Z,6.15
2019-02-10T20:36:20.569Z,6.32
2019-02-10T20:39:50.736Z,6.27
2019-02-10T20:43:17.929Z,6.23
2019-02-10T20:46:42.063Z,6.29
2019-02-10T20:50:05.037Z,6.28
2019-02-10T20:53:33.252Z,6.34
2019-02-10T20:57:00.295Z,6.31
2019-02-10T21:00:15.767Z,6.29
2019-02-10T21:03:42.626Z,6.31
2019-02-10T21:07:06.768Z,6.30
2019-02-10T21:10:30.986Z,6.28
2019-02-10T21:13:55.181Z,6.23
2019-02-10T21:17:10.627Z,6.22
2019-02-10T21:20:25.003Z,6.15
2019-02-10T21:23:38.034Z,6.22
2019-02-10T21:27:00.848Z,6.18
2019-02-10T21:30:21.616Z,6.10
2019-02-10T21:33:36.361Z,6.16
2019-02-10T21:36:49.404Z,6.14
2019-02-10T21:40:19.388Z,6.18
2019-02-10T21:43:42.347Z,6.13
2019-02-10T21:46:55.395Z,6.06
2019-02-10T21:50:00.517Z,6.08
2019-02-10T21:53:05.770Z,6.07
2019-02-10T21:56:11.993Z,5.95
2019-02-10T21:59:18.269Z,5.96
2019-02-10T22:02:23.576Z,6.08
2019-02-10T22:05:28.729Z,5.87
2019-02-10T22:08:33.870Z,5.74
2019-02-10T22:11:39.104Z,5.62
2019-02-10T22:14:44.297Z,5.53
2019-02-10T22:17:49.444Z,5.47
2019-02-10T22:20:54.624Z,5.28
2019-02-10T22:23:59.892Z,5.27
2019-02-10T22:27:05.024Z,5.22
2019-02-10T22:30:13.273Z,5.27
2019-02-10T22:33:18.463Z,5.16
2019-02-10T22:36:23.758Z,5.10
2019-02-10T22:39:28.849Z,5.03
2019-02-10T22:42:33.961Z,5.07
2019-02-10T22:45:39.151Z,5.11
2019-02-10T22:48:44.312Z,5.05
2019-02-10T22:51:49.510Z,5.06
2019-02-10T22:54:54.868Z,5.07
2019-02-10T22:58:00.153Z,5.10
2019-02-10T23:01:06.859Z,5.09
2019-02-10T23:04:13.634Z,5.14
2019-02-10T23:07:18.812Z,4.92
2019-02-10T23:10:23.947Z,4.98
2019-02-10T23:13:29.327Z,4.86
2019-02-10T23:16:34.686Z,4.87
2019-02-10T23:19:39.834Z,4.87
2019-02-10T23:22:45.001Z,4.88
2019-02-10T23:25:50.125Z,4.91
2019-02-10T23:28:55.259Z,4.98
2019-02-10T23:32:00.755Z,4.91
2019-02-10T23:35:07.127Z,4.93
2019-02-10T23:38:12.229Z,4.96
2019-02-10T23:41:17.330Z,4.95
2019-02-10T23:44:22.518Z,4.98
2019-02-10T23:47:27.870Z,4.94
2019-02-10T23:50:33.049Z,4.94
2019-02-10T23:53:38.313Z,5.06
2019-02-10T23:56:47.268Z,5.00
2019-02-10T23:59:50.398Z,5.03
